Αναφορές Αεροδρομίων

 

KSJC - San Jose, California, USA
Distance from station: ΒΑ 14km
Ενημερώθηκε: 25/04/2024 01:53
Συννεφιά
Συννεφιά
 Ανεμος από ΝΔ
Ανεμος: ΝΔ 11 km/h
Θερμοκρασία: 19°C
Σημείο Δρόσου: 7°C
Υγρασία: 46%
Βαρόμετρο: 1016.6 hPa
Clouds: Συννεφιά
Visibility: 16 km
Cloud details: Συννεφιά 1524 m
2024/04/24 22:53 KSJC 242253Z 22006KT 10SM OVC050 19/07 A3002 RMK AO2 SLP166 T01940067
KNUQ - Moffett Nas/Mtn, California, USA
Distance from station: Β 14km
Ενημερώθηκε: 25/04/2024 01:35
Συννεφιά
Συννεφιά
 Ανεμος από ΒΒΔ
Ανεμος: ΒΒΔ 22 km/h
Θερμοκρασία: 17°C
Σημείο Δρόσου: 8°C
Υγρασία: 56%
Βαρόμετρο: 1017.3 hPa
Clouds: Συννεφιά
Visibility: 16 km
Cloud details: Συννεφιά 1463 m
2024/04/24 22:35 KNUQ 242235Z AUTO 34012KT 10SM OVC048 17/08 A3004 RMK AO2
 
KPAO - Palo Alto, California, USA
Distance from station: ΒΒΔ 23km
Ενημερώθηκε: 25/04/2024 01:47
Σχεδόν νεφελώδης
Σχεδόν νεφελώδης
 Ανεμος από ΒΔ
Ανεμος: ΒΔ 20 km/h
Θερμοκρασία: 18°C
Σημείο Δρόσου: 9°C
Υγρασία: 56%
Βαρόμετρο: 1017.3 hPa
Clouds: Σχεδόν νεφελώδης
Visibility: 16 km
Cloud details: Σχεδόν νεφελώδης 1524 m
2024/04/24 22:47 KPAO 242247Z 32011KT 10SM BKN050 18/09 A3004
KRHV - San Jose/Reid, California, USA
Distance from station: ΑΒΑ 19km
Ενημερώθηκε: 25/04/2024 01:47
Σχεδόν νεφελώδης
Σχεδόν νεφελώδης
 Ανεμος από ΝΔ
Ανεμος: ΝΔ 11 km/h
Θερμοκρασία: 19°C
Σημείο Δρόσου: 7°C
Υγρασία: 46%
Βαρόμετρο: 1016.9 hPa
Clouds: Σχεδόν νεφελώδης
Visibility: 16 km
Cloud details: Σχεδόν νεφελώδης 1676 m
2024/04/24 22:47 KRHV 242247Z 22006KT 10SM BKN055 19/07 A3003
 
KOAK - Oakland, California, USA
Distance from station: ΒΒΔ 50km
Ενημερώθηκε: 25/04/2024 01:53
Σχεδόν νεφελώδης
Σχεδόν νεφελώδης
 Ανεμος από ΔΒΔ
Ανεμος: ΔΒΔ 17 km/h
Θερμοκρασία: 16°C
Σημείο Δρόσου: 10°C
Υγρασία: 68%
Βαρόμετρο: 1017.6 hPa
Clouds: Σχεδόν νεφελώδης
Visibility: 16 km
Cloud details: Few Clouds 366 m
Σχεδόν νεφελώδης 1524 m
2024/04/24 22:53 KOAK 242253Z 29009KT 10SM FEW012 BKN050 16/10 A3005 RMK AO2 SLP176 T01610100 $
KSQL - San Carlos Airpo, California, USA
Distance from station: ΒΔ 34km
Ενημερώθηκε: 25/04/2024 01:50
Σχεδόν νεφελώδης
Σχεδόν νεφελώδης
 Ανεμος από ΔΝΔ
Ανεμος: ΔΝΔ 19 km/h
Θερμοκρασία: 15°C
Σημείο Δρόσου: 10°C
Υγρασία: 72%
Βαρόμετρο: 1017.9 hPa
Clouds: Σχεδόν νεφελώδης
Visibility: 16 km
Cloud details: Σχεδόν νεφελώδης 1524 m
2024/04/24 22:50 KSQL 242250Z 25010KT 10SM BKN050 15/10 A3006
 
KSFO - San Francisco, California, USA
Distance from station: ΒΔ 49km
Ενημερώθηκε: 25/04/2024 00:56
Συννεφιά
Συννεφιά
 Ανεμος από ΒΒΔ
Ανεμος: ΒΒΔ 17 km/h
Θερμοκρασία: 16°C
Σημείο Δρόσου: 11°C
Υγρασία: 72%
Βαρόμετρο: 1017.9 hPa
Clouds: Συννεφιά
Visibility: 16 km
Cloud details: Few Clouds 701 m
Σχεδόν νεφελώδης 914 m
Συννεφιά 1463 m
2024/04/24 21:56 KSFO 242156Z 33009KT 10SM FEW023 BKN030 OVC048 16/11 A3006 RMK AO2 SLP179 T01560106
KE16 - San Martin, California, USA
Distance from station: ΑΝΑ 43km
Ενημερώθηκε: 25/04/2024 01:35
Σχεδόν νεφελώδης
Σχεδόν νεφελώδης
 Ανεμος από ΝΔ
Ανεμος: ΝΔ 13 km/h
Θερμοκρασία: 18°C
Σημείο Δρόσου: 6°C
Υγρασία: 46%
Βαρόμετρο: 1017.9 hPa
Clouds: Σχεδόν νεφελώδης
Visibility: 16 km
Cloud details: Σχεδόν νεφελώδης 1433 m
2024/04/24 22:35 KE16 242235Z AUTO 22007KT 10SM BKN047 18/06 A3006 RMK AO2 PWINO PNO
 
KWVI - Watsonville, California, USA
Distance from station: ΝΝΑ 44km
Ενημερώθηκε: 25/04/2024 01:53
Συννεφιά
Συννεφιά
 Ανεμος από ΔΝΔ
Ανεμος: ΔΝΔ 19 km/h
Θερμοκρασία: 16°C
Σημείο Δρόσου: 10°C
Υγρασία: 68%
Βαρόμετρο: 1018.3 hPa
Clouds: Συννεφιά
Visibility: 16 km
Cloud details: Συννεφιά 1402 m
2024/04/24 22:53 KWVI 242253Z AUTO 25010KT 10SM OVC046 16/10 A3007 RMK AO2 SLP181 T01560100
KHAF - Half Moon Bay, California, USA
Distance from station: ΔΒΔ 50km
Ενημερώθηκε: 25/04/2024 01:55
Συννεφιά
Συννεφιά
 Ανεμος από varies
Ανεμος: varies 9 km/h
Θερμοκρασία: 14°C
Σημείο Δρόσου: 11°C
Υγρασία: 82%
Βαρόμετρο: 1018.3 hPa
Clouds: Συννεφιά
Visibility: 13 km
Cloud details: Σχεδόν νεφελώδης 945 m
Συννεφιά 1494 m
2024/04/24 22:55 KHAF 242255Z AUTO VRB05KT 8SM BKN031 OVC049 14/11 A3007 RMK AO2
 
KHWD - Hayward, California, USA
Distance from station: Β 44km
Ενημερώθηκε: 25/04/2024 01:54
Σχεδόν νεφελώδης
Σχεδόν νεφελώδης
 Ανεμος από ΔΒΔ
Ανεμος: ΔΒΔ 24 km/h
Θερμοκρασία: 18°C
Σημείο Δρόσου: 11°C
Υγρασία: 64%
Βαρόμετρο: 1017.3 hPa
Clouds: Σχεδόν νεφελώδης
Visibility: 16 km
Cloud details: Σχεδόν νεφελώδης 1676 m
2024/04/24 22:54 KHWD 242254Z 29013KT 10SM BKN055 18/11 A3004 RMK AO2 SLP181 T01830106
KLVK - Livermore, California, USA
Distance from station: ΒΒΑ 51km
Ενημερώθηκε: 25/04/2024 01:53
Συννεφιά
Συννεφιά
 Ανεμος από varies
Ανεμος: varies 7 km/h
Θερμοκρασία: 18°C
Σημείο Δρόσου: 7°C
Υγρασία: 49%
Βαρόμετρο: 1016.6 hPa
Clouds: Συννεφιά
Visibility: 16 km
Cloud details: Συννεφιά 1463 m
2024/04/24 22:53 KLVK 242253Z VRB04KT 10SM OVC048 18/07 A3002 RMK AO2 SLP163 T01780067